sensor_id;sensor_type;location;lat;lon;timestamp;pressure;altitude;pressure_sealevel;temperature;humidity
23361;BME280;11852;50.082;18.554;2022-08-27T00:00:34;98070.5;;;21.01;66.65
23361;BME280;11852;50.082;18.554;2022-08-27T00:01:39;98069.0;;;20.99;66.71
23361;BME280;11852;50.082;18.554;2022-08-27T00:02:44;98070.0;;;20.97;66.68
23361;BME280;11852;50.082;18.554;2022-08-27T00:03:48;98073.0;;;20.97;66.71
23361;BME280;11852;50.082;18.554;2022-08-27T00:04:53;98071.0;;;20.95;66.71
23361;BME280;11852;50.082;18.554;2022-08-27T00:05:57;98072.0;;;20.94;66.54
23361;BME280;11852;50.082;18.554;2022-08-27T00:07:02;98072.0;;;20.93;66.57
23361;BME280;11852;50.082;18.554;2022-08-27T00:08:07;98072.0;;;20.92;66.44
23361;BME280;11852;50.082;18.554;2022-08-27T00:09:11;98072.0;;;20.91;66.36
23361;BME280;11852;50.082;18.554;2022-08-27T00:10:18;98073.0;;;20.9;66.27
23361;BME280;11852;50.082;18.554;2022-08-27T00:11:21;98076.5;;;20.92;66.35
23361;BME280;11852;50.082;18.554;2022-08-27T00:12:36;98074.5;;;20.92;66.24
23361;BME280;11852;50.082;18.554;2022-08-27T00:13:40;98074.5;;;20.92;66.12
23361;BME280;11852;50.082;18.554;2022-08-27T00:14:45;98077.5;;;20.91;65.92
23361;BME280;11852;50.082;18.554;2022-08-27T00:15:49;98077.0;;;20.9;65.88
23361;BME280;11852;50.082;18.554;2022-08-27T00:16:59;98076.5;;;20.9;65.88
23361;BME280;11852;50.082;18.554;2022-08-27T00:18:03;98076.5;;;20.89;65.84
23361;BME280;11852;50.082;18.554;2022-08-27T00:19:08;98076.0;;;20.88;65.93
23361;BME280;11852;50.082;18.554;2022-08-27T00:20:15;98081.0;;;20.88;65.94
23361;BME280;11852;50.082;18.554;2022-08-27T00:21:20;98079.0;;;20.86;66.08
23361;BME280;11852;50.082;18.554;2022-08-27T00:22:25;98082.5;;;20.85;66.3
23361;BME280;11852;50.082;18.554;2022-08-27T00:23:29;98080.01;;;20.83;66.18
23361;BME280;11852;50.082;18.554;2022-08-27T00:24:34;98082.49;;;20.82;66.21
23361;BME280;11852;50.082;18.554;2022-08-27T00:25:38;98085.0;;;20.81;66.43
23361;BME280;11852;50.082;18.554;2022-08-27T00:26:43;98084.5;;;20.8;66.61
23361;BME280;11852;50.082;18.554;2022-08-27T00:27:47;98085.0;;;20.8;66.88
23361;BME280;11852;50.082;18.554;2022-08-27T00:28:51;98086.0;;;20.77;67.15
23361;BME280;11852;50.082;18.554;2022-08-27T00:29:56;98085.0;;;20.76;67.54
23361;BME280;11852;50.082;18.554;2022-08-27T00:31:00;98087.5;;;20.74;67.85
23361;BME280;11852;50.082;18.554;2022-08-27T00:32:16;98086.5;;;20.72;68.2
23361;BME280;11852;50.082;18.554;2022-08-27T00:33:31;98088.5;;;20.69;68.29
23361;BME280;11852;50.082;18.554;2022-08-27T00:34:37;98086.5;;;20.67;68.32
23361;BME280;11852;50.082;18.554;2022-08-27T00:35:43;98085.0;;;20.66;68.32
23361;BME280;11852;50.082;18.554;2022-08-27T00:36:51;98085.5;;;20.64;68.24
23361;BME280;11852;50.082;18.554;2022-08-27T00:37:58;98083.0;;;20.6;68.45
23361;BME280;11852;50.082;18.554;2022-08-27T00:39:03;98085.0;;;20.58;68.64
23361;BME280;11852;50.082;18.554;2022-08-27T00:40:08;98086.0;;;20.57;68.59
23361;BME280;11852;50.082;18.554;2022-08-27T00:41:12;98087.0;;;20.55;68.74
23361;BME280;11852;50.082;18.554;2022-08-27T00:42:16;98085.0;;;20.53;68.66
23361;BME280;11852;50.082;18.554;2022-08-27T00:43:22;98085.0;;;20.53;68.41
23361;BME280;11852;50.082;18.554;2022-08-27T00:44:35;98084.0;;;20.42;68.44
23361;BME280;11852;50.082;18.554;2022-08-27T00:45:44;98082.0;;;20.28;68.78
23361;BME280;11852;50.082;18.554;2022-08-27T00:47:02;98081.5;;;20.27;68.72
23361;BME280;11852;50.082;18.554;2022-08-27T00:48:05;98080.5;;;20.2;68.8
23361;BME280;11852;50.082;18.554;2022-08-27T00:50:28;98081.5;;;19.93;69.74
23361;BME280;11852;50.082;18.554;2022-08-27T00:51:41;98079.5;;;20.05;69.19
23361;BME280;11852;50.082;18.554;2022-08-27T00:52:51;98078.5;;;20.08;68.98
23361;BME280;11852;50.082;18.554;2022-08-27T00:53:57;98079.0;;;20.03;69.24
23361;BME280;11852;50.082;18.554;2022-08-27T00:55:03;98077.0;;;20.08;69.01
23361;BME280;11852;50.082;18.554;2022-08-27T00:56:09;98076.0;;;20.12;69.21
23361;BME280;11852;50.082;18.554;2022-08-27T00:57:22;98077.0;;;20.16;69.2
23361;BME280;11852;50.082;18.554;2022-08-27T00:58:33;98075.5;;;20.17;69.26
23361;BME280;11852;50.082;18.554;2022-08-27T00:59:39;98077.0;;;20.19;69.29
23361;BME280;11852;50.082;18.554;2022-08-27T01:00:49;98077.0;;;20.18;69.35
23361;BME280;11852;50.082;18.554;2022-08-27T01:02:05;98074.0;;;20.19;69.4
23361;BME280;11852;50.082;18.554;2022-08-27T01:03:19;98076.0;;;20.2;69.43
23361;BME280;11852;50.082;18.554;2022-08-27T01:04:24;98074.5;;;20.2;69.35
23361;BME280;11852;50.082;18.554;2022-08-27T01:05:29;98075.5;;;20.22;69.35
23361;BME280;11852;50.082;18.554;2022-08-27T01:06:34;98077.0;;;20.23;69.35
23361;BME280;11852;50.082;18.554;2022-08-27T01:07:39;98076.5;;;20.23;69.53
23361;BME280;11852;50.082;18.554;2022-08-27T01:08:58;98077.0;;;20.23;69.79
23361;BME280;11852;50.082;18.554;2022-08-27T01:10:06;98077.5;;;20.22;70.08
23361;BME280;11852;50.082;18.554;2022-08-27T01:11:09;98080.5;;;20.22;70.6
23361;BME280;11852;50.082;18.554;2022-08-27T01:12:14;98081.5;;;20.19;70.89
23361;BME280;11852;50.082;18.554;2022-08-27T01:13:33;98083.5;;;20.19;71.03
23361;BME280;11852;50.082;18.554;2022-08-27T01:14:38;98088.5;;;20.16;71.26
23361;BME280;11852;50.082;18.554;2022-08-27T01:15:43;98087.5;;;20.14;71.22
23361;BME280;11852;50.082;18.554;2022-08-27T01:16:49;98088.5;;;20.12;71.09
23361;BME280;11852;50.082;18.554;2022-08-27T01:17:53;98085.5;;;20.1;70.88
23361;BME280;11852;50.082;18.554;2022-08-27T01:18:57;98085.5;;;20.1;70.79
23361;BME280;11852;50.082;18.554;2022-08-27T01:20:03;98084.0;;;20.11;70.57
23361;BME280;11852;50.082;18.554;2022-08-27T01:23:55;98080.5;;;20.14;70.07
23361;BME280;11852;50.082;18.554;2022-08-27T01:24:44;98085.0;;;20.12;70.46
23361;BME280;11852;50.082;18.554;2022-08-27T01:25:47;98082.49;;;20.08;70.69
23361;BME280;11852;50.082;18.554;2022-08-27T01:26:57;98081.5;;;20.07;70.74
23361;BME280;11852;50.082;18.554;2022-08-27T01:28:00;98085.0;;;20.05;70.97
23361;BME280;11852;50.082;18.554;2022-08-27T01:29:05;98085.0;;;20.03;70.8
23361;BME280;11852;50.082;18.554;2022-08-27T01:30:11;98085.5;;;20.03;70.79
23361;BME280;11852;50.082;18.554;2022-08-27T01:31:15;98088.0;;;20.03;70.88
23361;BME280;11852;50.082;18.554;2022-08-27T01:33:31;98088.0;;;20.01;71.15
23361;BME280;11852;50.082;18.554;2022-08-27T01:34:35;98086.5;;;19.99;71.66
23361;BME280;11852;50.082;18.554;2022-08-27T01:35:40;98086.5;;;19.96;72.15
23361;BME280;11852;50.082;18.554;2022-08-27T01:36:44;98084.5;;;19.93;72.29
23361;BME280;11852;50.082;18.554;2022-08-27T01:37:50;98084.5;;;19.92;72.81
23361;BME280;11852;50.082;18.554;2022-08-27T01:38:54;98083.5;;;19.92;73.18
23361;BME280;11852;50.082;18.554;2022-08-27T01:40:04;98081.0;;;19.9;73.26
23361;BME280;11852;50.082;18.554;2022-08-27T01:41:18;98079.0;;;19.85;73.16
23361;BME280;11852;50.082;18.554;2022-08-27T01:42:32;98080.5;;;19.92;72.83
23361;BME280;11852;50.082;18.554;2022-08-27T01:43:44;98081.0;;;20.01;72.23
23361;BME280;11852;50.082;18.554;2022-08-27T01:44:50;98079.0;;;20.06;72.1
23361;BME280;11852;50.082;18.554;2022-08-27T01:46:00;98079.5;;;20.06;71.84
23361;BME280;11852;50.082;18.554;2022-08-27T01:47:04;98080.0;;;20.14;71.57
23361;BME280;11852;50.082;18.554;2022-08-27T01:48:09;98084.5;;;20.17;71.0
23361;BME280;11852;50.082;18.554;2022-08-27T01:49:13;98083.5;;;20.2;70.92
23361;BME280;11852;50.082;18.554;2022-08-27T01:50:25;98084.5;;;20.24;70.77
23361;BME280;11852;50.082;18.554;2022-08-27T01:51:28;98082.5;;;20.26;70.57
23361;BME280;11852;50.082;18.554;2022-08-27T01:52:32;98083.0;;;20.28;70.33
23361;BME280;11852;50.082;18.554;2022-08-27T01:53:36;98079.51;;;20.27;70.49
23361;BME280;11852;50.082;18.554;2022-08-27T01:54:46;98082.0;;;20.24;70.58
23361;BME280;11852;50.082;18.554;2022-08-27T01:55:57;98082.0;;;20.24;70.75
23361;BME280;11852;50.082;18.554;2022-08-27T01:57:13;98081.0;;;20.2;70.82
23361;BME280;11852;50.082;18.554;2022-08-27T01:58:18;98081.0;;;20.19;70.67
23361;BME280;11852;50.082;18.554;2022-08-27T01:59:36;98084.5;;;20.17;70.68
23361;BME280;11852;50.082;18.554;2022-08-27T02:00:42;98086.0;;;20.17;70.64
23361;BME280;11852;50.082;18.554;2022-08-27T02:01:55;98083.5;;;20.15;70.69
23361;BME280;11852;50.082;18.554;2022-08-27T02:03:19;98082.5;;;20.14;70.63
23361;BME280;11852;50.082;18.554;2022-08-27T02:04:24;98082.0;;;20.11;70.74
23361;BME280;11852;50.082;18.554;2022-08-27T02:05:33;98079.5;;;20.08;70.76
23361;BME280;11852;50.082;18.554;2022-08-27T02:06:48;98079.5;;;20.07;70.85
23361;BME280;11852;50.082;18.554;2022-08-27T02:07:53;98078.0;;;20.03;70.97
23361;BME280;11852;50.082;18.554;2022-08-27T02:08:57;98078.0;;;20.01;70.95
23361;BME280;11852;50.082;18.554;2022-08-27T02:10:15;98076.5;;;19.97;70.91
23361;BME280;11852;50.082;18.554;2022-08-27T02:11:16;98076.5;;;19.94;70.67
23361;BME280;11852;50.082;18.554;2022-08-27T02:12:26;98078.5;;;19.91;70.65
23361;BME280;11852;50.082;18.554;2022-08-27T02:13:31;98077.0;;;19.89;70.54
23361;BME280;11852;50.082;18.554;2022-08-27T02:14:36;98078.5;;;19.87;70.61
23361;BME280;11852;50.082;18.554;2022-08-27T02:15:40;98078.5;;;19.85;70.74
23361;BME280;11852;50.082;18.554;2022-08-27T02:16:44;98079.51;;;19.84;70.79
23361;BME280;11852;50.082;18.554;2022-08-27T02:17:49;98082.0;;;19.83;70.79
23361;BME280;11852;50.082;18.554;2022-08-27T02:18:53;98082.0;;;19.8;70.93
23361;BME280;11852;50.082;18.554;2022-08-27T02:19:58;98081.5;;;19.76;70.97
23361;BME280;11852;50.082;18.554;2022-08-27T02:21:02;98079.5;;;19.75;71.22
23361;BME280;11852;50.082;18.554;2022-08-27T02:22:07;98080.5;;;19.73;71.35
23361;BME280;11852;50.082;18.554;2022-08-27T02:23:14;98081.49;;;19.72;71.47
23361;BME280;11852;50.082;18.554;2022-08-27T02:24:18;98082.0;;;19.7;71.43
23361;BME280;11852;50.082;18.554;2022-08-27T02:25:32;98083.5;;;19.68;71.47
23361;BME280;11852;50.082;18.554;2022-08-27T02:26:36;98085.0;;;19.67;71.4
23361;BME280;11852;50.082;18.554;2022-08-27T02:27:43;98086.0;;;19.67;71.32
23361;BME280;11852;50.082;18.554;2022-08-27T02:28:47;98086.0;;;19.67;71.36
23361;BME280;11852;50.082;18.554;2022-08-27T02:30:03;98087.5;;;19.65;71.43
23361;BME280;11852;50.082;18.554;2022-08-27T02:31:07;98090.0;;;19.63;71.5
23361;BME280;11852;50.082;18.554;2022-08-27T02:32:12;98086.5;;;19.62;71.57
23361;BME280;11852;50.082;18.554;2022-08-27T02:33:18;98088.5;;;19.61;71.96
23361;BME280;11852;50.082;18.554;2022-08-27T02:34:22;98090.0;;;19.6;72.2
23361;BME280;11852;50.082;18.554;2022-08-27T02:35:29;98091.5;;;19.6;72.31
23361;BME280;11852;50.082;18.554;2022-08-27T02:36:33;98090.5;;;19.58;72.38
23361;BME280;11852;50.082;18.554;2022-08-27T02:37:38;98090.0;;;19.58;72.5
23361;BME280;11852;50.082;18.554;2022-08-27T02:38:49;98090.0;;;19.56;72.56
23361;BME280;11852;50.082;18.554;2022-08-27T02:39:56;98093.01;;;19.55;72.45
23361;BME280;11852;50.082;18.554;2022-08-27T02:41:00;98091.5;;;19.53;72.54
23361;BME280;11852;50.082;18.554;2022-08-27T02:42:05;98092.01;;;19.52;72.75
23361;BME280;11852;50.082;18.554;2022-08-27T02:43:10;98092.5;;;19.5;73.02
23361;BME280;11852;50.082;18.554;2022-08-27T02:44:15;98091.5;;;19.47;73.29
23361;BME280;11852;50.082;18.554;2022-08-27T02:45:28;98091.0;;;19.46;73.46
23361;BME280;11852;50.082;18.554;2022-08-27T02:46:33;98094.0;;;19.45;74.1
23361;BME280;11852;50.082;18.554;2022-08-27T02:47:42;98093.0;;;19.45;74.51
23361;BME280;11852;50.082;18.554;2022-08-27T02:48:47;98094.0;;;19.45;74.68
23361;BME280;11852;50.082;18.554;2022-08-27T02:49:52;98094.5;;;19.44;74.6
23361;BME280;11852;50.082;18.554;2022-08-27T02:50:58;98093.5;;;19.47;74.55
23361;BME280;11852;50.082;18.554;2022-08-27T02:52:10;98089.5;;;19.5;74.58
23361;BME280;11852;50.082;18.554;2022-08-27T02:53:20;98093.0;;;19.54;74.49
23361;BME280;11852;50.082;18.554;2022-08-27T02:54:25;98098.5;;;19.61;74.18
23361;BME280;11852;50.082;18.554;2022-08-27T02:55:30;98100.5;;;19.67;74.23
23361;BME280;11852;50.082;18.554;2022-08-27T02:56:37;98104.5;;;19.72;74.49
23361;BME280;11852;50.082;18.554;2022-08-27T02:57:42;98103.0;;;19.74;74.43
23361;BME280;11852;50.082;18.554;2022-08-27T02:58:46;98099.5;;;19.79;74.1
23361;BME280;11852;50.082;18.554;2022-08-27T02:59:51;98097.0;;;19.83;73.79
23361;BME280;11852;50.082;18.554;2022-08-27T03:01:01;98096.0;;;19.85;73.68
23361;BME280;11852;50.082;18.554;2022-08-27T03:02:05;98093.0;;;19.86;73.41
23361;BME280;11852;50.082;18.554;2022-08-27T03:03:10;98090.0;;;19.88;73.09
23361;BME280;11852;50.082;18.554;2022-08-27T03:04:24;98087.5;;;19.89;73.05
23361;BME280;11852;50.082;18.554;2022-08-27T03:05:43;98083.0;;;19.9;72.72
23361;BME280;11852;50.082;18.554;2022-08-27T03:06:48;98079.0;;;19.9;72.5
23361;BME280;11852;50.082;18.554;2022-08-27T03:07:52;98076.5;;;19.9;72.35
23361;BME280;11852;50.082;18.554;2022-08-27T03:08:57;98074.0;;;19.84;72.25
23361;BME280;11852;50.082;18.554;2022-08-27T03:10:02;98072.0;;;19.86;71.93
23361;BME280;11852;50.082;18.554;2022-08-27T03:11:09;98068.5;;;19.79;71.9
23361;BME280;11852;50.082;18.554;2022-08-27T03:12:25;98068.5;;;19.77;71.65
23361;BME280;11852;50.082;18.554;2022-08-27T03:13:29;98068.0;;;19.74;71.24
23361;BME280;11852;50.082;18.554;2022-08-27T03:14:34;98068.0;;;19.69;71.27
23361;BME280;11852;50.082;18.554;2022-08-27T03:15:38;98068.5;;;19.65;71.28
23361;BME280;11852;50.082;18.554;2022-08-27T03:16:53;98066.0;;;19.65;71.22
23361;BME280;11852;50.082;18.554;2022-08-27T03:18:09;98064.0;;;19.58;71.38
23361;BME280;11852;50.082;18.554;2022-08-27T03:19:14;98066.0;;;19.55;71.43
23361;BME280;11852;50.082;18.554;2022-08-27T03:20:18;98065.5;;;19.55;71.43
23361;BME280;11852;50.082;18.554;2022-08-27T03:21:23;98063.5;;;19.51;71.43
23361;BME280;11852;50.082;18.554;2022-08-27T03:22:27;98062.5;;;19.49;71.43
23361;BME280;11852;50.082;18.554;2022-08-27T03:23:48;98065.5;;;19.48;71.6
23361;BME280;11852;50.082;18.554;2022-08-27T03:24:52;98066.0;;;19.44;71.86
23361;BME280;11852;50.082;18.554;2022-08-27T03:25:57;98065.5;;;19.42;72.04
23361;BME280;11852;50.082;18.554;2022-08-27T03:27:08;98063.5;;;19.41;72.26
23361;BME280;11852;50.082;18.554;2022-08-27T03:28:12;98064.0;;;19.4;72.38
23361;BME280;11852;50.082;18.554;2022-08-27T03:29:17;98061.5;;;19.38;72.53
23361;BME280;11852;50.082;18.554;2022-08-27T03:30:21;98062.5;;;19.36;72.56
23361;BME280;11852;50.082;18.554;2022-08-27T03:31:26;98060.0;;;19.35;72.68
23361;BME280;11852;50.082;18.554;2022-08-27T03:32:30;98062.0;;;19.32;72.78
23361;BME280;11852;50.082;18.554;2022-08-27T03:33:36;98060.5;;;19.31;72.93
23361;BME280;11852;50.082;18.554;2022-08-27T03:34:39;98059.5;;;19.28;73.09
23361;BME280;11852;50.082;18.554;2022-08-27T03:35:43;98056.5;;;19.25;72.99
23361;BME280;11852;50.082;18.554;2022-08-27T03:37:07;98057.0;;;19.25;72.85
23361;BME280;11852;50.082;18.554;2022-08-27T03:38:17;98051.5;;;19.14;72.63
23361;BME280;11852;50.082;18.554;2022-08-27T03:39:21;98051.0;;;19.1;72.58
23361;BME280;11852;50.082;18.554;2022-08-27T03:40:30;98049.5;;;19.03;72.54
23361;BME280;11852;50.082;18.554;2022-08-27T03:41:35;98048.0;;;19.03;72.44
23361;BME280;11852;50.082;18.554;2022-08-27T03:42:41;98049.5;;;19.0;72.42
23361;BME280;11852;50.082;18.554;2022-08-27T03:43:46;98050.0;;;18.96;72.44
23361;BME280;11852;50.082;18.554;2022-08-27T03:44:50;98056.0;;;18.99;72.51
23361;BME280;11852;50.082;18.554;2022-08-27T03:45:56;98059.5;;;19.01;72.68
23361;BME280;11852;50.082;18.554;2022-08-27T03:47:11;98061.5;;;19.01;73.0
23361;BME280;11852;50.082;18.554;2022-08-27T03:48:16;98064.5;;;19.02;73.14
23361;BME280;11852;50.082;18.554;2022-08-27T03:49:22;98064.0;;;19.03;72.88
23361;BME280;11852;50.082;18.554;2022-08-27T03:50:27;98064.5;;;19.03;72.71
23361;BME280;11852;50.082;18.554;2022-08-27T03:51:31;98063.5;;;19.02;72.82
23361;BME280;11852;50.082;18.554;2022-08-27T03:52:36;98062.0;;;19.01;72.94
23361;BME280;11852;50.082;18.554;2022-08-27T03:53:57;98063.0;;;19.0;73.03
23361;BME280;11852;50.082;18.554;2022-08-27T03:55:03;98062.5;;;18.98;73.25
23361;BME280;11852;50.082;18.554;2022-08-27T03:56:11;98061.5;;;18.96;73.44
23361;BME280;11852;50.082;18.554;2022-08-27T03:57:15;98065.5;;;18.94;73.68
23361;BME280;11852;50.082;18.554;2022-08-27T03:58:20;98066.0;;;18.94;73.92
23361;BME280;11852;50.082;18.554;2022-08-27T03:59:24;98068.0;;;18.93;74.43
23361;BME280;11852;50.082;18.554;2022-08-27T04:00:50;98070.5;;;18.95;75.0
23361;BME280;11852;50.082;18.554;2022-08-27T04:01:55;98077.5;;;18.95;75.09
23361;BME280;11852;50.082;18.554;2022-08-27T04:03:00;98082.0;;;18.95;74.96
23361;BME280;11852;50.082;18.554;2022-08-27T04:04:06;98087.0;;;18.98;74.9
23361;BME280;11852;50.082;18.554;2022-08-27T04:05:11;98091.0;;;19.05;74.79
23361;BME280;11852;50.082;18.554;2022-08-27T04:06:18;98091.0;;;19.08;74.54
23361;BME280;11852;50.082;18.554;2022-08-27T04:07:23;98093.0;;;19.12;74.37
23361;BME280;11852;50.082;18.554;2022-08-27T04:08:42;98090.5;;;19.16;74.31
23361;BME280;11852;50.082;18.554;2022-08-27T04:09:51;98094.0;;;19.19;74.8
23361;BME280;11852;50.082;18.554;2022-08-27T04:11:06;98097.0;;;19.24;74.94
23361;BME280;11852;50.082;18.554;2022-08-27T04:12:12;98098.5;;;19.28;75.3
23361;BME280;11852;50.082;18.554;2022-08-27T04:13:33;98101.0;;;19.37;75.81
23361;BME280;11852;50.082;18.554;2022-08-27T04:14:48;98104.51;;;19.4;75.83
23361;BME280;11852;50.082;18.554;2022-08-27T04:15:53;98104.0;;;19.42;75.68
23361;BME280;11852;50.082;18.554;2022-08-27T04:16:57;98105.0;;;19.42;75.52
23361;BME280;11852;50.082;18.554;2022-08-27T04:18:08;98107.0;;;19.42;75.58
23361;BME280;11852;50.082;18.554;2022-08-27T04:19:13;98106.5;;;19.44;75.63
23361;BME280;11852;50.082;18.554;2022-08-27T04:20:17;98105.01;;;19.46;75.56
23361;BME280;11852;50.082;18.554;2022-08-27T04:21:22;98107.5;;;19.47;75.74
23361;BME280;11852;50.082;18.554;2022-08-27T04:22:27;98106.5;;;19.47;75.82
23361;BME280;11852;50.082;18.554;2022-08-27T04:23:32;98108.5;;;19.46;75.9
23361;BME280;11852;50.082;18.554;2022-08-27T04:24:42;98108.0;;;19.45;76.17
23361;BME280;11852;50.082;18.554;2022-08-27T04:25:52;98102.0;;;19.45;76.56
23361;BME280;11852;50.082;18.554;2022-08-27T04:26:56;98102.0;;;19.45;76.72
23361;BME280;11852;50.082;18.554;2022-08-27T04:28:01;98099.0;;;19.43;76.83
23361;BME280;11852;50.082;18.554;2022-08-27T04:29:05;98097.5;;;19.42;76.85
23361;BME280;11852;50.082;18.554;2022-08-27T04:30:10;98095.5;;;19.4;76.9
23361;BME280;11852;50.082;18.554;2022-08-27T04:31:15;98096.0;;;19.37;76.85
23361;BME280;11852;50.082;18.554;2022-08-27T04:32:21;98094.5;;;19.35;76.78
23361;BME280;11852;50.082;18.554;2022-08-27T04:33:27;98095.5;;;19.33;76.83
23361;BME280;11852;50.082;18.554;2022-08-27T04:34:41;98102.0;;;19.32;77.1
23361;BME280;11852;50.082;18.554;2022-08-27T04:35:46;98098.0;;;19.31;77.13
23361;BME280;11852;50.082;18.554;2022-08-27T04:36:54;98098.5;;;19.29;77.23
23361;BME280;11852;50.082;18.554;2022-08-27T04:38:08;98098.0;;;19.27;77.36
23361;BME280;11852;50.082;18.554;2022-08-27T04:39:30;98097.0;;;19.26;77.4
23361;BME280;11852;50.082;18.554;2022-08-27T04:40:39;98103.0;;;19.23;77.81
23361;BME280;11852;50.082;18.554;2022-08-27T04:41:44;98112.0;;;19.21;78.37
23361;BME280;11852;50.082;18.554;2022-08-27T04:42:50;98117.51;;;19.19;78.75
23361;BME280;11852;50.082;18.554;2022-08-27T04:44:05;98118.0;;;19.19;78.6
23361;BME280;11852;50.082;18.554;2022-08-27T04:45:08;98119.0;;;19.2;78.35
23361;BME280;11852;50.082;18.554;2022-08-27T04:46:21;98118.0;;;19.22;78.28
23361;BME280;11852;50.082;18.554;2022-08-27T04:47:22;98117.0;;;19.26;78.11
23361;BME280;11852;50.082;18.554;2022-08-27T04:48:27;98115.5;;;19.3;77.92
23361;BME280;11852;50.082;18.554;2022-08-27T04:49:31;98118.5;;;19.29;77.73
23361;BME280;11852;50.082;18.554;2022-08-27T04:50:46;98116.5;;;19.37;77.44
23361;BME280;11852;50.082;18.554;2022-08-27T04:51:57;98114.0;;;19.47;77.21
23361;BME280;11852;50.082;18.554;2022-08-27T04:53:02;98111.5;;;19.52;77.07
23361;BME280;11852;50.082;18.554;2022-08-27T04:54:17;98114.0;;;19.55;76.9
23361;BME280;11852;50.082;18.554;2022-08-27T04:55:21;98112.5;;;19.59;76.85
23361;BME280;11852;50.082;18.554;2022-08-27T04:56:26;98109.0;;;19.63;76.69
23361;BME280;11852;50.082;18.554;2022-08-27T04:57:31;98108.5;;;19.68;76.46
23361;BME280;11852;50.082;18.554;2022-08-27T04:58:36;98106.5;;;19.71;76.43
23361;BME280;11852;50.082;18.554;2022-08-27T04:59:40;98106.0;;;19.74;76.33
23361;BME280;11852;50.082;18.554;2022-08-27T05:00:59;98108.5;;;19.78;76.18
23361;BME280;11852;50.082;18.554;2022-08-27T05:02:05;98112.0;;;19.76;76.11
23361;BME280;11852;50.082;18.554;2022-08-27T05:03:09;98113.5;;;19.78;75.88
23361;BME280;11852;50.082;18.554;2022-08-27T05:04:23;98115.0;;;19.76;75.79
23361;BME280;11852;50.082;18.554;2022-08-27T05:05:38;98113.5;;;19.73;75.84
23361;BME280;11852;50.082;18.554;2022-08-27T05:06:43;98113.0;;;19.67;75.9
23361;BME280;11852;50.082;18.554;2022-08-27T05:07:47;98110.0;;;19.65;75.67
23361;BME280;11852;50.082;18.554;2022-08-27T05:08:52;98106.5;;;19.65;75.63
23361;BME280;11852;50.082;18.554;2022-08-27T05:10:03;98105.0;;;19.48;76.28
23361;BME280;11852;50.082;18.554;2022-08-27T05:11:08;98109.0;;;19.5;76.24
23361;BME280;11852;50.082;18.554;2022-08-27T05:12:11;98115.5;;;19.47;76.63
23361;BME280;11852;50.082;18.554;2022-08-27T05:13:17;98115.5;;;19.49;76.75
23361;BME280;11852;50.082;18.554;2022-08-27T05:14:21;98117.0;;;19.53;76.71
23361;BME280;11852;50.082;18.554;2022-08-27T05:15:25;98117.0;;;19.55;76.7
23361;BME280;11852;50.082;18.554;2022-08-27T05:17:12;98117.0;;;19.55;76.7
23361;BME280;11852;50.082;18.554;2022-08-27T05:18:17;98111.5;;;19.4;77.44
23361;BME280;11852;50.082;18.554;2022-08-27T05:19:21;98108.5;;;19.49;77.21
23361;BME280;11852;50.082;18.554;2022-08-27T05:20:26;98110.0;;;19.53;77.37
23361;BME280;11852;50.082;18.554;2022-08-27T05:21:31;98112.5;;;19.59;77.44
23361;BME280;11852;50.082;18.554;2022-08-27T05:22:35;98110.0;;;19.65;77.57
23361;BME280;11852;50.082;18.554;2022-08-27T05:23:39;98107.0;;;19.7;77.52
23361;BME280;11852;50.082;18.554;2022-08-27T05:24:44;98108.5;;;19.72;77.46
23361;BME280;11852;50.082;18.554;2022-08-27T05:25:50;98115.0;;;19.81;77.29
23361;BME280;11852;50.082;18.554;2022-08-27T05:26:54;98128.5;;;19.88;76.7
23361;BME280;11852;50.082;18.554;2022-08-27T05:27:58;98140.0;;;19.86;77.49
23361;BME280;11852;50.082;18.554;2022-08-27T05:29:08;98135.0;;;19.82;78.15
23361;BME280;11852;50.082;18.554;2022-08-27T05:30:12;98129.5;;;19.71;78.49
23361;BME280;11852;50.082;18.554;2022-08-27T05:31:18;98126.5;;;19.86;77.82
23361;BME280;11852;50.082;18.554;2022-08-27T05:32:21;98129.0;;;20.05;77.37
23361;BME280;11852;50.082;18.554;2022-08-27T05:33:25;98125.5;;;20.18;77.06
23361;BME280;11852;50.082;18.554;2022-08-27T05:34:33;98127.5;;;20.27;76.82
23361;BME280;11852;50.082;18.554;2022-08-27T05:35:41;98127.0;;;20.37;76.81
23361;BME280;11852;50.082;18.554;2022-08-27T05:36:45;98125.5;;;20.45;76.61
23361;BME280;11852;50.082;18.554;2022-08-27T05:37:49;98128.5;;;20.51;76.45
23361;BME280;11852;50.082;18.554;2022-08-27T05:39:03;98127.0;;;20.58;76.07
23361;BME280;11852;50.082;18.554;2022-08-27T05:40:13;98123.5;;;20.31;76.82
23361;BME280;11852;50.082;18.554;2022-08-27T05:41:20;98119.99;;;20.58;75.9
23361;BME280;11852;50.082;18.554;2022-08-27T05:42:30;98121.5;;;20.62;75.93
23361;BME280;11852;50.082;18.554;2022-08-27T05:43:34;98126.5;;;20.67;76.26
23361;BME280;11852;50.082;18.554;2022-08-27T05:44:38;98130.0;;;20.72;76.58
23361;BME280;11852;50.082;18.554;2022-08-27T05:45:46;98133.5;;;20.76;76.54
23361;BME280;11852;50.082;18.554;2022-08-27T05:46:50;98137.0;;;20.6;77.12
23361;BME280;11852;50.082;18.554;2022-08-27T05:47:59;98119.49;;;20.68;76.71
23361;BME280;11852;50.082;18.554;2022-08-27T05:49:04;98117.5;;;20.75;76.53
23361;BME280;11852;50.082;18.554;2022-08-27T05:50:09;98118.0;;;20.8;76.38
23361;BME280;11852;50.082;18.554;2022-08-27T05:51:15;98121.0;;;20.81;76.38
23361;BME280;11852;50.082;18.554;2022-08-27T05:52:23;98124.5;;;20.83;76.44
23361;BME280;11852;50.082;18.554;2022-08-27T05:53:32;98122.0;;;20.85;76.72
23361;BME280;11852;50.082;18.554;2022-08-27T05:54:37;98114.5;;;20.64;77.6
23361;BME280;11852;50.082;18.554;2022-08-27T05:55:42;98109.5;;;20.74;77.11
23361;BME280;11852;50.082;18.554;2022-08-27T05:56:47;98107.0;;;20.79;76.98
23361;BME280;11852;50.082;18.554;2022-08-27T05:57:50;98104.51;;;20.66;77.56
23361;BME280;11852;50.082;18.554;2022-08-27T05:59:10;98107.0;;;20.76;77.06
23361;BME280;11852;50.082;18.554;2022-08-27T06:00:20;98111.0;;;20.83;76.96
23361;BME280;11852;50.082;18.554;2022-08-27T06:01:24;98117.0;;;20.89;77.4
23361;BME280;11852;50.082;18.554;2022-08-27T06:02:29;98116.0;;;20.91;77.74